Burgoon, Ohio
Current Conditions -  °F | °C
As of 2:53 AM on Sunday 26 Oct 2014 (Local Time) from KTDZ Reporting Station
Clear Clear  
Wind Chill: 41°   Ceiling: Unl
Heat Index: 45°   Visibility: 10mi
Dew Point: 32°   Wind: 8mph
Humidity: 60%   Direction: 290°WNW
Pressure: 29.89"   Gusts: NA
Location:  41.27°N, 83.25°W
Report Text: KTDZ 260653Z AUTO 29007KT 10SM CLR 07/00 A2989 RMK AO2 SLP120 T00720000 TSNO
Loading
Personal Weather Stations






























Interactive Weather Map
Tropical Storm Tracking
New forecast layout! Learn more

10-Day Weather Forecast

Advertisements
Track Severe Weather on mobile